Wednesday, March 21, 2018, 2:56 AM EDT
Back to Local

KBLM, Belmar-farmingdale

Location: Farmingdale, NJ, United States Lat: 40.183
Local Time: 2:56 AM EDT ( 6:56 GMT) Lon: -74.133
Time Zone: US/Eastern Elev: 157 ft

Show me the last for .
Show Decoded

2018-03-21 01:56 METAR KBLM 210556Z AUTO 03015G24KT 10SM OVC041 03/M07 A2972 RMK AO2
                 RAB09E21B37E47 SLP068 P0000 60001 T00281072 10028 20006 =
2018-03-21 00:56 METAR KBLM 210456Z AUTO 04015G23KT 10SM OVC041 03/M06 A2971 RMK AO2 SLP067
                 T00281061 400281022 =
2018-03-20 23:56 METAR KBLM 210356Z AUTO 04013G24KT 10SM OVC110 02/M06 RMK AO2 SLPNO T00221056
                 FZRANO $ =
2018-03-20 22:56 METAR KBLM 210256Z AUTO 04012KT 10SM SCT085 OVC110 02/M05 A2975 RMK AO2 RAE45
                 SLP080 P0000 60001 T00221050 56017 FZRANO =
2018-03-20 21:56 METAR KBLM 210156Z AUTO 05013G20KT 10SM -RA OVC070 02/M05 A2976 RMK AO2 SLP083
                 P0000 T00171050 FZRANO =
2018-03-20 20:56 METAR KBLM 210056Z AUTO 04015G19KT 10SM -RA OVC065 01/M04 A2976 RMK AO2 PRESFR
                 SLP084 P0001 T00111044 FZRANO =
2018-03-20 19:56 METAR KBLM 202356Z AUTO 03013G18KT 10SM -RA BKN065 OVC080 01/M04 A2980 RMK AO2
                 UPE05RAB05 SLP097 P0000 60017 T00061044 10006 21011 58003 FZRANO =
2018-03-20 18:56 METAR KBLM 202256Z AUTO 04012G20KT 10SM UP FEW055 OVC080 00/M05 A2980 RMK AO2
                 UPB28SNE28 SLP096 P0003 T00001050 FZRANO =
2018-03-20 18:18 METAR KBLM 202218Z AUTO 03010G17KT 9SM -SN FEW015 SCT031 OVC050 M01/M04 A2981
                 RMK AO2 P0001 FZRANO =
2018-03-20 17:56 METAR KBLM 202156Z AUTO 03012G18KT 6SM -SN BKN015 OVC022 M01/M04 A2981 RMK AO2
                 SLP100 P0004 T10061039 FZRANO =
2018-03-20 17:50 METAR KBLM 202150Z AUTO 04014G17KT 3SM -SN SCT014 BKN019 OVC045 M01/M04 A2982
                 RMK AO2 P0003 FZRANO =
2018-03-20 16:56 METAR KBLM 202056Z AUTO 04010KT 9SM -SN OVC055 M01/M04 A2981 RMK AO2 SLP099
                 P0004 60010 T10061044 56014 FZRANO =
2018-03-20 15:56 METAR KBLM 201956Z AUTO 03012KT 9SM -SN OVC060 00/M05 A2982 RMK AO2 SLP102 P0003
                 T00001050 FZRANO =
2018-03-20 14:56 METAR KBLM 201856Z AUTO 04011KT 9SM -SN OVC060 01/M06 A2983 RMK AO2 RAB15E21
                 SLP105 P0003 T00061061 FZRANO =
2018-03-20 13:56 METAR KBLM 201756Z AUTO 04014G22KT 7SM -SN FEW026 BKN036 OVC055 01/M05 A2985 RMK
                 AO2 RAE42SNB42 SLP114 P0000 60000 T00061050 10017 20006 58027 FZRANO =
2018-03-20 12:56 METAR KBLM 201656Z AUTO 05011G20KT 10SM -RA FEW050 OVC060 01/M05 A2989 RMK AO2
                 RAB33UPB42E48 SLP126 P0000 T00111050 FZRANO =
2018-03-20 11:56 METAR KBLM 201556Z AUTO 05013KT 10SM OVC065 01/M06 A2990 RMK AO2 SLP132
                 T00111056 FZRANO =
2018-03-20 10:56 METAR KBLM 201456Z AUTO 07013G19KT 10SM OVC080 01/M07 A2993 RMK AO2 SLP140
                 T00111067 58005 FZRANO =
2018-03-20 09:56 METAR KBLM 201356Z AUTO 05013G17KT 10SM BKN080 01/M08 A2995 RMK AO2 SLP147
                 T00111078 FZRANO =
2018-03-20 08:56 METAR KBLM 201256Z AUTO 06014KT 10SM BKN080 01/M08 A2994 RMK AO2 SLP143
                 T00111078 FZRANO =
2018-03-20 07:56 METAR KBLM 201156Z AUTO 04011G16KT 10SM CLR 01/M08 A2994 RMK AO2 SLP145 7////
                 T00061078 10011 20000 50003 FZRANO =
2018-03-20 06:56 METAR KBLM 201056Z AUTO 05009KT 10SM CLR 01/M08 A2995 RMK AO2 SLP147 T00061078
                 FZRANO =
2018-03-20 05:56 METAR KBLM 200956Z AUTO 05008KT 10SM CLR 01/M10 A2994 RMK AO2 SLP143 T00061100
                 FZRANO =
2018-03-20 04:56 METAR KBLM 200856Z AUTO 05008KT 10SM CLR 01/M09 A2994 RMK AO2 SLP143 T00111094
                 FZRANO TSNO =
2018-03-20 03:56 METAR KBLM 200756Z AUTO 04007KT 10SM CLR 01/M08 A2993 RMK AO2 SLP142 T00111078
                 FZRANO =

Support USWX by starting your Amazon purchase here.